Time;durP1;ratioP1;P1;durP2;ratioP2;P2;SDS_P1;SDS_P2;PMS_P1;PMS_P2;Temp;Humidity;BMP_temperature;BMP_pressure;BME280_temperature;BME280_humidity;BME280_pressure;Samples;Min_cycle;Max_cycle;Signal;HPM_P1;HPM_P2
2022/12/31 00:00:41;;;;;;;11.53;7.13;;;8.00;89.60;;;;;;5093015;28;20246;-75
2022/12/31 00:03:23;;;;;;;9.77;7.00;;;8.00;89.70;;;;;;5091538;28;20232;-75
2022/12/31 00:06:28;;;;;;;7.87;7.00;;;7.90;89.40;;;;;;5092816;28;20193;-76
2022/12/31 00:09:08;;;;;;;11.87;7.37;;;7.90;90.10;;;;;;5092295;28;20227;-75
2022/12/31 00:11:57;;;;;;;9.30;6.93;;;7.90;89.50;;;;;;5092212;28;20207;-76
2022/12/31 00:14:46;;;;;;;11.77;6.93;;;7.90;90.10;;;;;;5092101;28;20220;-76
2022/12/31 00:17:29;;;;;;;15.83;8.77;;;7.80;90.50;;;;;;5092503;28;20223;-75
2022/12/31 00:20:19;;;;;;;13.93;8.60;;;7.60;92.30;;;;;;5086350;28;20205;-74
2022/12/31 00:23:01;;;;;;;10.67;7.27;;;7.50;93.20;;;;;;5085004;28;20189;-75
2022/12/31 00:25:45;;;;;;;14.20;7.77;;;7.50;93.50;;;;;;5091666;28;20670;-75
2022/12/31 00:28:27;;;;;;;10.53;7.70;;;7.50;94.20;;;;;;5092732;28;20581;-74
2022/12/31 00:31:17;;;;;;;12.17;7.60;;;7.50;93.90;;;;;;5092786;28;20200;-73
2022/12/31 00:34:00;;;;;;;14.47;8.07;;;7.50;94.20;;;;;;5090950;28;20678;-75
2022/12/31 00:36:50;;;;;;;11.67;7.30;;;7.50;94.10;;;;;;5092705;28;20291;-75
2022/12/31 00:39:32;;;;;;;10.17;8.07;;;7.60;93.80;;;;;;5092578;28;20200;-75
2022/12/31 00:42:21;;;;;;;11.40;7.50;;;7.60;93.60;;;;;;5092342;28;20283;-74
2022/12/31 00:45:10;;;;;;;11.53;8.43;;;7.60;93.30;;;;;;5092504;28;20617;-74
2022/12/31 00:47:53;;;;;;;13.73;8.40;;;7.70;93.90;;;;;;5091513;28;20212;-74
2022/12/31 00:50:43;;;;;;;11.00;7.13;;;7.70;93.70;;;;;;5092633;28;20192;-74
2022/12/31 00:53:26;;;;;;;13.20;8.43;;;7.70;94.10;;;;;;5090976;28;20206;-75
2022/12/31 00:56:16;;;;;;;12.03;7.77;;;7.70;94.50;;;;;;5091866;28;20204;-74
2022/12/31 00:59:00;;;;;;;11.50;7.73;;;7.70;94.80;;;;;;5092176;28;20713;-75
2022/12/31 01:01:49;;;;;;;13.47;7.83;;;7.80;94.80;;;;;;5091042;28;20297;-75
2022/12/31 01:04:32;;;;;;;13.10;8.23;;;7.80;94.70;;;;;;5089280;28;20240;-75
2022/12/31 01:07:22;;;;;;;13.53;7.93;;;7.80;95.40;;;;;;5092219;28;20550;-75
2022/12/31 01:10:05;;;;;;;13.50;8.00;;;7.80;95.40;;;;;;5092166;28;20223;-75
2022/12/31 01:12:54;;;;;;;10.23;7.03;;;7.90;95.30;;;;;;5091780;28;20565;-73
2022/12/31 01:15:41;;;;;;;12.73;7.87;;;7.90;94.90;;;;;;5092150;28;20227;-74
2022/12/31 01:18:23;;;;;;;9.87;7.90;;;7.90;96.20;;;;;;5091315;28;20571;-73
2022/12/31 01:21:14;;;;;;;12.33;8.10;;;7.90;96.30;;;;;;5090749;28;20299;-74
2022/12/31 01:23:58;;;;;;;12.57;7.97;;;7.90;96.30;;;;;;5092175;28;20701;-73
2022/12/31 01:26:47;;;;;;;10.80;7.67;;;7.90;96.50;;;;;;5092049;28;20192;-74
2022/12/31 01:29:29;;;;;;;12.33;8.13;;;8.00;96.10;;;;;;5091553;28;20583;-74
2022/12/31 01:32:19;;;;;;;11.83;8.13;;;8.00;95.80;;;;;;5091078;28;20577;-75
2022/12/31 01:35:01;;;;;;;9.73;8.17;;;8.00;96.00;;;;;;5091919;28;20223;-75
2022/12/31 01:37:50;;;;;;;12.17;7.37;;;8.00;96.10;;;;;;5091674;28;20188;-75
2022/12/31 01:40:27;;;;;;;11.57;7.80;;;8.00;96.50;;;;;;5091633;28;20204;-75
2022/12/31 01:43:18;;;;;;;12.60;7.63;;;8.00;96.50;;;;;;5091179;28;20668;-73
2022/12/31 01:46:08;;;;;;;13.30;7.73;;;8.00;97.30;;;;;;5091088;28;20192;-75
2022/12/31 01:48:55;;;;;;;12.07;8.50;;;8.00;97.10;;;;;;5091356;28;20218;-75
2022/12/31 01:51:46;;;;;;;11.00;7.83;;;8.00;97.20;;;;;;5091485;28;20199;-74
2022/12/31 01:54:31;;;;;;;10.43;7.57;;;8.10;97.50;;;;;;5091676;28;20608;-75
2022/12/31 01:57:22;;;;;;;12.67;8.10;;;8.00;97.30;;;;;;5091344;28;20199;-75
2022/12/31 02:00:06;;;;;;;10.47;7.67;;;8.00;98.00;;;;;;5091033;28;20624;-74
2022/12/31 02:03:02;;;;;;;10.03;8.13;;;8.00;98.00;;;;;;5089746;28;20235;-74
2022/12/31 02:05:43;;;;;;;10.43;7.63;;;8.00;98.20;;;;;;5090089;28;20544;-76
2022/12/31 02:08:32;;;;;;;10.87;8.17;;;8.00;98.50;;;;;;5090962;28;20207;-75
2022/12/31 02:11:34;;;;;;;8.87;7.23;;;8.00;99.10;;;;;;5090879;28;20192;-75
2022/12/31 02:14:21;;;;;;;10.67;7.53;;;8.00;99.00;;;;;;5091223;28;20204;-73
2022/12/31 02:17:16;;;;;;;11.83;7.93;;;8.00;99.30;;;;;;5090557;28;20207;-74
2022/12/31 02:20:24;;;;;;;9.77;7.63;;;8.00;99.40;;;;;;5090951;28;20528;-75
2022/12/31 02:23:45;;;;;;;10.83;7.93;;;8.00;99.90;;;;;;5091022;28;20200;-74
2022/12/31 02:26:55;;;;;;;11.20;7.40;;;8.00;99.90;;;;;;5091024;28;20192;-74
2022/12/31 02:30:22;;;;;;;12.40;8.17;;;8.10;99.90;;;;;;5090367;28;21071;-75
2022/12/31 02:33:13;;;;;;;12.37;7.97;;;8.10;99.90;;;;;;5091044;28;20211;-75
2022/12/31 02:36:01;;;;;;;10.20;8.00;;;8.10;99.90;;;;;;5091117;28;20188;-75
2022/12/31 02:38:50;;;;;;;12.13;8.63;;;8.10;99.90;;;;;;5070819;28;20194;-74
2022/12/31 02:41:51;;;;;;;9.90;8.00;;;8.10;99.90;;;;;;5072384;28;20201;-75
2022/12/31 02:44:41;;;;;;;10.37;7.57;;;8.20;99.90;;;;;;5090323;28;20192;-75
2022/12/31 02:47:33;;;;;;;14.17;8.53;;;8.10;99.90;;;;;;5090847;28;20185;-74
2022/12/31 02:50:36;;;;;;;10.70;8.10;;;8.00;99.90;;;;;;5090666;28;20267;-75
2022/12/31 02:53:38;;;;;;;13.67;8.73;;;7.90;99.90;;;;;;5090872;28;20189;-75
2022/12/31 02:56:27;;;;;;;14.53;7.97;;;7.90;99.90;;;;;;5089699;28;20207;-74
2022/12/31 03:02:24;;;;;;;10.67;8.23;;;8.00;99.90;;;;;;5089082;28;20246;-75
2022/12/31 03:05:21;;;;;;;12.67;8.17;;;8.00;99.90;;;;;;5090892;28;20196;-74
2022/12/31 03:08:11;;;;;;;9.83;7.37;;;8.00;99.90;;;;;;5090701;28;20592;-75
2022/12/31 03:10:55;;;;;;;10.67;7.80;;;8.00;99.90;;;;;;5091724;28;20578;-74
2022/12/31 03:13:44;;;;;;;15.17;8.13;;;8.10;99.90;;;;;;5092348;28;20287;-75
2022/12/31 03:16:26;;;;;;;11.33;8.07;;;8.00;99.90;;;;;;5094234;28;20200;-75
2022/12/31 03:22:29;;;;;;;11.57;7.53;;;8.00;99.90;;;;;;5051392;28;20594;-75
2022/12/31 03:25:34;;;;;;;10.37;7.93;;;8.00;99.90;;;;;;5051163;28;20213;-75
2022/12/31 03:28:20;;;;;;;8.87;7.80;;;8.00;99.90;;;;;;5051010;28;20284;-75
2022/12/31 03:31:10;;;;;;;12.13;8.10;;;7.90;99.90;;;;;;5050677;28;20240;-75
2022/12/31 03:33:59;;;;;;;11.03;8.37;;;7.90;99.90;;;;;;5050722;28;20595;-75
2022/12/31 03:36:41;;;;;;;11.23;8.17;;;7.70;99.90;;;;;;5050812;28;20556;-75
2022/12/31 03:39:30;;;;;;;9.70;8.17;;;7.60;99.90;;;;;;5050691;28;20224;-75
2022/12/31 03:42:13;;;;;;;12.67;9.50;;;7.60;99.90;;;;;;5050243;28;20201;-73
2022/12/31 03:45:02;;;;;;;13.60;8.13;;;7.50;99.90;;;;;;5050481;28;20213;-75
2022/12/31 03:47:44;;;;;;;11.97;8.77;;;7.50;99.90;;;;;;5050415;28;20211;-74
2022/12/31 03:50:33;;;;;;;11.10;8.57;;;7.50;99.90;;;;;;5033631;28;20615;-74
2022/12/31 03:53:15;;;;;;;11.37;8.80;;;7.50;99.90;;;;;;5050577;28;20197;-75
2022/12/31 03:55:57;;;;;;;9.23;7.87;;;7.60;99.90;;;;;;5033677;28;20205;-74
2022/12/31 03:58:40;;;;;;;12.30;8.87;;;7.60;99.90;;;;;;5057251;28;20568;-75
2022/12/31 04:01:29;;;;;;;11.37;8.47;;;7.50;99.90;;;;;;5092784;28;20200;-76
2022/12/31 04:04:11;;;;;;;12.83;7.70;;;7.40;99.90;;;;;;5091651;28;20243;-75
2022/12/31 04:07:00;;;;;;;9.53;7.60;;;7.50;99.90;;;;;;5093016;28;20208;-77
2022/12/31 04:09:42;;;;;;;11.47;8.60;;;7.60;99.90;;;;;;5092621;28;20218;-76
2022/12/31 04:12:31;;;;;;;9.27;7.63;;;7.60;99.90;;;;;;5092215;28;20201;-77
2022/12/31 04:15:22;;;;;;;10.93;8.17;;;7.60;99.90;;;;;;5092698;28;20207;-76
2022/12/31 04:18:04;;;;;;;10.87;8.20;;;7.60;99.90;;;;;;5092801;28;20210;-75
2022/12/31 04:20:59;;;;;;;10.23;8.00;;;7.60;99.90;;;;;;5092388;28;20295;-75
2022/12/31 04:23:34;;;;;;;10.87;8.17;;;7.70;99.90;;;;;;5092600;28;20197;-75
2022/12/31 04:26:30;;;;;;;12.67;8.33;;;7.70;99.90;;;;;;5092462;28;20196;-74
2022/12/31 04:29:05;;;;;;;10.23;8.30;;;7.60;99.90;;;;;;5092332;28;20205;-75
2022/12/31 04:31:56;;;;;;;9.20;7.97;;;7.60;99.90;;;;;;5092287;28;20203;-74
2022/12/31 04:34:39;;;;;;;10.13;8.03;;;7.70;99.90;;;;;;5091193;28;20204;-75
2022/12/31 04:37:35;;;;;;;8.17;7.37;;;7.80;99.90;;;;;;5092208;28;20295;-75
2022/12/31 04:40:24;;;;;;;10.40;7.90;;;7.90;99.90;;;;;;5092162;28;20533;-75
2022/12/31 04:43:06;;;;;;;9.07;7.93;;;8.00;99.90;;;;;;5091588;28;20192;-74
2022/12/31 04:45:55;;;;;;;9.67;7.90;;;8.00;99.90;;;;;;5092069;28;20200;-75
2022/12/31 04:48:39;;;;;;;10.87;7.47;;;8.00;99.90;;;;;;5092023;28;20201;-75
2022/12/31 04:51:29;;;;;;;8.77;7.40;;;8.00;99.90;;;;;;5091653;28;20239;-74
2022/12/31 04:54:11;;;;;;;9.03;8.03;;;8.10;99.90;;;;;;5091980;28;20233;-75
2022/12/31 04:57:00;;;;;;;11.20;7.77;;;8.10;99.90;;;;;;5091693;28;20204;-76
2022/12/31 04:59:42;;;;;;;9.23;7.87;;;8.10;99.90;;;;;;5090231;28;20249;-74
2022/12/31 05:02:31;;;;;;;9.43;8.00;;;8.10;99.90;;;;;;5091483;28;20199;-74
2022/12/31 05:05:28;;;;;;;9.33;7.50;;;8.20;99.90;;;;;;5071484;28;20204;-75
2022/12/31 05:08:04;;;;;;;10.13;7.83;;;8.20;99.90;;;;;;5071501;28;20235;-74
2022/12/31 05:10:53;;;;;;;9.23;7.90;;;8.30;99.90;;;;;;5071242;28;20236;-75
2022/12/31 05:13:28;;;;;;;9.23;7.57;;;8.30;99.90;;;;;;5069322;28;20270;-76
2022/12/31 05:16:01;;;;;;;9.37;8.00;;;8.30;99.90;;;;;;5070989;28;20951;-75
2022/12/31 05:18:30;;;;;;;10.37;8.50;;;8.30;99.90;;;;;;5071088;28;20196;-73
2022/12/31 05:21:01;;;;;;;12.57;8.70;;;8.30;99.90;;;;;;5071146;28;20272;-75
2022/12/31 05:23:30;;;;;;;9.50;8.50;;;8.30;99.90;;;;;;5070943;28;20193;-75
2022/12/31 05:26:00;;;;;;;9.50;8.50;;;8.40;99.90;;;;;;5071927;28;20197;-73
2022/12/31 05:28:29;;;;;;;10.17;8.33;;;8.40;99.90;;;;;;5071917;28;20205;-75
2022/12/31 05:30:59;;;;;;;9.10;8.20;;;8.50;99.90;;;;;;5071746;28;20221;-75
2022/12/31 05:33:28;;;;;;;8.93;8.03;;;8.60;99.90;;;;;;5070987;28;20299;-75
2022/12/31 05:35:57;;;;;;;9.43;7.70;;;8.60;99.90;;;;;;5071904;28;20197;-75
2022/12/31 05:38:28;;;;;;;11.30;8.33;;;8.70;99.90;;;;;;5071654;28;20193;-74
2022/12/31 05:41:01;;;;;;;8.33;7.27;;;8.70;99.90;;;;;;5071791;28;20194;-75
2022/12/31 05:43:30;;;;;;;9.20;7.83;;;8.80;99.90;;;;;;5071264;28;20576;-75
2022/12/31 05:46:01;;;;;;;8.93;8.03;;;8.80;99.90;;;;;;5071785;28;20221;-75
2022/12/31 05:48:31;;;;;;;8.10;7.40;;;8.80;99.90;;;;;;5071831;28;20258;-75
2022/12/31 05:50:59;;;;;;;7.83;7.07;;;8.80;99.90;;;;;;5072342;28;20208;-74
2022/12/31 05:53:30;;;;;;;9.00;8.10;;;8.90;99.90;;;;;;5071324;28;20231;-75
2022/12/31 05:55:59;;;;;;;11.77;7.77;;;8.90;99.90;;;;;;5070377;28;20205;-75
2022/12/31 05:58:28;;;;;;;9.13;7.87;;;8.90;99.90;;;;;;5071578;28;20218;-76
2022/12/31 06:00:57;;;;;;;8.60;7.17;;;9.00;99.90;;;;;;5066506;28;20733;-76
2022/12/31 06:03:26;;;;;;;7.77;6.97;;;9.00;99.90;;;;;;5066919;28;20233;-75
2022/12/31 06:05:55;;;;;;;10.47;7.80;;;9.00;99.90;;;;;;5071516;28;20627;-76
2022/12/31 06:08:24;;;;;;;8.47;7.57;;;9.00;99.90;;;;;;5091301;28;20207;-76
2022/12/31 06:10:55;;;;;;;9.33;7.80;;;9.00;99.90;;;;;;5091487;28;20243;-75
2022/12/31 06:13:24;;;;;;;9.27;7.67;;;9.00;99.90;;;;;;5091265;28;20189;-74
2022/12/31 06:15:53;;;;;;;8.90;7.50;;;9.00;99.90;;;;;;5091608;28;20662;-75
2022/12/31 06:18:22;;;;;;;9.10;7.40;;;9.10;99.90;;;;;;5091274;28;20192;-74
2022/12/31 06:20:51;;;;;;;9.77;7.30;;;9.10;99.90;;;;;;5091276;28;20208;-75
2022/12/31 06:23:20;;;;;;;9.43;7.70;;;9.00;99.90;;;;;;5091320;28;20591;-75
2022/12/31 06:25:48;;;;;;;8.03;7.23;;;9.00;99.90;;;;;;5091539;28;20223;-74
2022/12/31 06:28:19;;;;;;;9.03;8.13;;;8.90;99.90;;;;;;5091441;28;20201;-75
2022/12/31 06:30:48;;;;;;;10.13;8.03;;;8.90;99.90;;;;;;5090852;28;20228;-76
2022/12/31 06:33:18;;;;;;;9.73;8.37;;;9.00;99.90;;;;;;5091887;28;20188;-76
2022/12/31 06:35:47;;;;;;;11.17;7.83;;;9.00;99.90;;;;;;5091956;28;20208;-76
2022/12/31 06:38:17;;;;;;;9.00;8.07;;;9.00;99.90;;;;;;5091296;28;20331;-75
2022/12/31 06:40:46;;;;;;;8.87;7.57;;;9.00;99.90;;;;;;5091350;28;20200;-75
2022/12/31 06:43:14;;;;;;;9.37;7.10;;;8.90;99.90;;;;;;5089811;28;20206;-73
2022/12/31 06:45:45;;;;;;;8.37;7.57;;;9.00;99.90;;;;;;5092548;28;20204;-75
2022/12/31 06:48:14;;;;;;;9.50;8.03;;;9.00;99.90;;;;;;5095270;28;20192;-74
2022/12/31 06:50:43;;;;;;;9.73;8.30;;;9.00;99.90;;;;;;5095100;28;20725;-75
2022/12/31 06:53:12;;;;;;;8.73;7.83;;;9.00;99.90;;;;;;5095089;28;20201;-75
2022/12/31 06:55:42;;;;;;;9.43;7.77;;;9.00;99.90;;;;;;5095295;28;20201;-76
2022/12/31 06:58:12;;;;;;;9.40;7.70;;;9.10;99.90;;;;;;5095160;28;20191;-76
2022/12/31 07:00:44;;;;;;;8.97;7.10;;;9.10;99.90;;;;;;5094649;28;20221;-74
2022/12/31 07:03:31;;;;;;;9.57;7.80;;;9.20;99.90;;;;;;5094680;28;20232;-74
2022/12/31 07:06:07;;;;;;;10.57;7.77;;;9.20;99.90;;;;;;5094971;28;20196;-74
2022/12/31 07:08:49;;;;;;;9.37;7.80;;;9.20;99.90;;;;;;5094733;28;20202;-75
2022/12/31 07:11:23;;;;;;;8.77;7.87;;;9.20;99.90;;;;;;5094743;28;20217;-74
2022/12/31 07:14:04;;;;;;;9.10;8.17;;;9.20;99.90;;;;;;5094481;28;20201;-76
2022/12/31 07:16:43;;;;;;;10.20;8.70;;;9.20;99.90;;;;;;5094731;28;20201;-75
2022/12/31 07:19:29;;;;;;;8.77;7.87;;;9.20;99.90;;;;;;5094740;28;20626;-75
2022/12/31 07:21:59;;;;;;;10.17;8.43;;;9.20;99.90;;;;;;5094498;28;20737;-75
2022/12/31 07:24:30;;;;;;;8.77;7.30;;;9.30;99.90;;;;;;5090371;28;20200;-75
2022/12/31 07:27:39;;;;;;;8.13;7.43;;;9.30;99.90;;;;;;5091893;28;20219;-76
2022/12/31 07:30:14;;;;;;;9.97;8.03;;;9.30;99.90;;;;;;4992554;28;20348;-76
2022/12/31 07:33:06;;;;;;;8.83;7.47;;;9.40;99.90;;;;;;5010596;28;20259;-75
2022/12/31 07:35:47;;;;;;;8.77;7.03;;;9.40;99.90;;;;;;5011992;28;20205;-75
2022/12/31 07:38:25;;;;;;;8.83;7.93;;;9.40;99.90;;;;;;4995669;28;20217;-74
2022/12/31 07:41:07;;;;;;;9.10;8.10;;;9.40;99.90;;;;;;5012080;28;20670;-76
2022/12/31 07:43:48;;;;;;;8.63;7.73;;;9.50;99.90;;;;;;5011890;28;20211;-76
2022/12/31 07:46:22;;;;;;;8.03;7.23;;;9.50;99.90;;;;;;5011015;28;20698;-76
2022/12/31 07:48:51;;;;;;;7.63;6.80;;;9.50;99.90;;;;;;4992308;28;20775;-75
2022/12/31 07:51:23;;;;;;;8.73;7.63;;;9.50;99.90;;;;;;4992380;28;20232;-74
2022/12/31 07:53:52;;;;;;;7.93;7.13;;;9.60;99.90;;;;;;4992239;28;21190;-76
2022/12/31 07:56:20;;;;;;;8.40;7.60;;;9.60;99.90;;;;;;4991865;28;20204;-76
2022/12/31 07:59:02;;;;;;;7.63;6.83;;;9.70;99.90;;;;;;4991935;28;20218;-76
2022/12/31 08:01:36;;;;;;;7.97;7.17;;;9.70;99.90;;;;;;5000548;28;20209;-76
2022/12/31 08:04:10;;;;;;;8.10;7.30;;;9.70;99.90;;;;;;5011142;28;20226;-76
2022/12/31 08:06:50;;;;;;;9.93;8.07;;;9.70;99.90;;;;;;5082992;28;20206;-74
2022/12/31 08:09:34;;;;;;;8.93;7.40;;;9.80;99.90;;;;;;5093661;28;20660;-75
2022/12/31 08:12:03;;;;;;;10.57;7.53;;;9.80;99.90;;;;;;5093504;28;20833;-75
2022/12/31 08:14:40;;;;;;;17.97;13.80;;;9.80;99.90;;;;;;5093018;28;20196;-75
2022/12/31 08:17:12;;;;;;;15.37;11.37;;;9.80;99.90;;;;;;5093526;28;20206;-76
2022/12/31 08:19:42;;;;;;;14.57;11.00;;;9.90;99.90;;;;;;5093611;28;20583;-75
2022/12/31 08:22:31;;;;;;;7.30;6.07;;;9.90;99.90;;;;;;5093410;28;20190;-77
2022/12/31 08:25:14;;;;;;;9.53;6.93;;;9.90;99.90;;;;;;5093089;28;20657;-74
2022/12/31 08:27:50;;;;;;;7.20;6.47;;;9.90;99.90;;;;;;5093362;28;20665;-76
2022/12/31 08:30:21;;;;;;;7.33;6.37;;;10.00;99.90;;;;;;5093157;28;20215;-76
2022/12/31 08:32:59;;;;;;;11.20;7.33;;;9.90;99.90;;;;;;5092652;28;20587;-76
2022/12/31 08:35:39;;;;;;;8.40;6.87;;;10.00;99.90;;;;;;5092943;28;20185;-77
2022/12/31 08:38:20;;;;;;;7.53;6.57;;;10.00;99.90;;;;;;5093071;28;20272;-76
2022/12/31 08:40:58;;;;;;;6.67;5.97;;;10.10;99.90;;;;;;5093149;28;20191;-76
2022/12/31 08:43:41;;;;;;;10.03;6.13;;;10.10;99.90;;;;;;5093019;28;20211;-74
2022/12/31 08:46:19;;;;;;;7.10;6.50;;;10.10;99.90;;;;;;5092581;28;20213;-75
2022/12/31 08:48:48;;;;;;;6.70;6.10;;;10.10;99.90;;;;;;5092825;28;20215;-75
2022/12/31 08:51:20;;;;;;;7.23;6.43;;;10.20;99.90;;;;;;5092880;28;20186;-74
2022/12/31 08:53:52;;;;;;;7.70;6.60;;;10.10;99.90;;;;;;5092653;28;20226;-74
2022/12/31 08:56:27;;;;;;;8.20;6.80;;;10.10;99.90;;;;;;5092489;28;20566;-75
2022/12/31 08:59:14;;;;;;;7.30;6.53;;;10.10;99.90;;;;;;5091359;28;20217;-76
2022/12/31 09:02:15;;;;;;;8.10;7.30;;;10.20;99.90;;;;;;5092359;28;20192;-75
2022/12/31 09:04:56;;;;;;;7.33;6.60;;;10.20;99.90;;;;;;5092303;28;20231;-76
2022/12/31 09:07:35;;;;;;;8.13;7.03;;;10.20;99.90;;;;;;5092060;28;20197;-76
2022/12/31 09:10:15;;;;;;;8.07;6.97;;;10.20;99.90;;;;;;5092222;28;20276;-77
2022/12/31 09:12:53;;;;;;;7.93;7.13;;;10.20;99.90;;;;;;5092442;28;20743;-77
2022/12/31 09:15:30;;;;;;;7.10;6.50;;;10.20;99.90;;;;;;5092077;28;20278;-77
2022/12/31 09:17:59;;;;;;;7.27;6.57;;;10.10;99.90;;;;;;5092397;28;20288;-77
2022/12/31 09:20:32;;;;;;;7.97;7.23;;;10.10;99.90;;;;;;5092228;28;20206;-74
2022/12/31 09:23:12;;;;;;;9.77;7.83;;;10.10;99.90;;;;;;5092216;28;20254;-76
2022/12/31 09:25:51;;;;;;;9.00;7.07;;;10.10;99.90;;;;;;5092072;28;20746;-75
2022/12/31 09:28:37;;;;;;;7.50;6.80;;;10.10;99.90;;;;;;5092173;28;20204;-74
2022/12/31 09:31:13;;;;;;;9.43;7.20;;;10.10;99.90;;;;;;5091752;28;20312;-75
2022/12/31 09:33:50;;;;;;;7.93;6.67;;;10.30;99.90;;;;;;5092006;28;20227;-76
2022/12/31 09:36:26;;;;;;;9.70;6.93;;;10.30;99.90;;;;;;5091949;28;20271;-76
2022/12/31 09:39:04;;;;;;;7.90;7.13;;;10.30;99.90;;;;;;5091980;28;20197;-75
2022/12/31 09:42:11;;;;;;;6.90;6.27;;;10.30;99.90;;;;;;5091973;28;20207;-76
2022/12/31 09:45:34;;;;;;;8.27;7.03;;;10.30;99.90;;;;;;5029055;28;20198;-75
2022/12/31 09:48:32;;;;;;;7.47;6.40;;;10.40;99.90;;;;;;5029494;28;21037;-75
2022/12/31 09:51:16;;;;;;;7.03;6.33;;;10.50;99.90;;;;;;5029570;28;20583;-76
2022/12/31 09:54:19;;;;;;;6.93;6.23;;;10.60;99.90;;;;;;5029422;28;20726;-74
2022/12/31 09:57:07;;;;;;;7.47;6.07;;;10.60;99.90;;;;;;5028999;28;20712;-74
2022/12/31 09:59:44;;;;;;;7.87;6.23;;;10.50;99.90;;;;;;5012840;28;20272;-75
2022/12/31 10:02:23;;;;;;;7.10;6.40;;;10.50;99.90;;;;;;5029004;28;20748;-74
2022/12/31 10:05:03;;;;;;;7.20;6.50;;;10.40;99.90;;;;;;5029028;28;20231;-74
2022/12/31 10:07:51;;;;;;;8.67;7.40;;;10.50;99.90;;;;;;5028942;28;20207;-76
2022/12/31 10:10:29;;;;;;;7.17;6.17;;;10.40;99.90;;;;;;5029358;28;20211;-76
2022/12/31 10:13:29;;;;;;;6.63;6.00;;;10.40;99.90;;;;;;5012484;28;20742;-76
2022/12/31 10:16:13;;;;;;;7.97;7.20;;;10.50;99.90;;;;;;5028919;28;20206;-74
2022/12/31 10:18:54;;;;;;;8.13;6.57;;;10.50;99.90;;;;;;5029215;28;20205;-75
2022/12/31 10:21:38;;;;;;;7.80;6.43;;;10.50;99.90;;;;;;5050505;28;20205;-75
2022/12/31 10:24:45;;;;;;;6.77;5.67;;;10.50;99.90;;;;;;5095585;28;20201;-75
2022/12/31 10:27:28;;;;;;;7.13;6.47;;;10.50;99.90;;;;;;5013068;28;20204;-74
2022/12/31 10:30:04;;;;;;;6.93;6.23;;;10.50;99.90;;;;;;5013147;28;20204;-76
2022/12/31 10:32:42;;;;;;;8.30;6.60;;;10.60;99.90;;;;;;5012564;28;20209;-73
2022/12/31 10:35:27;;;;;;;8.03;7.23;;;10.60;99.90;;;;;;5013398;28;20624;-75
2022/12/31 10:38:09;;;;;;;7.33;6.63;;;10.70;99.90;;;;;;5013016;28;20212;-76
2022/12/31 10:41:02;;;;;;;10.00;7.43;;;10.70;99.90;;;;;;4996620;28;20203;-74
2022/12/31 10:43:59;;;;;;;8.53;7.27;;;10.70;99.90;;;;;;4938267;28;20250;-74
2022/12/31 10:46:51;;;;;;;11.57;8.30;;;10.60;99.90;;;;;;4954488;28;20212;-73
2022/12/31 10:49:54;;;;;;;8.67;7.77;;;10.60;99.90;;;;;;4954677;28;20584;-73
2022/12/31 10:52:59;;;;;;;11.43;8.87;;;10.50;99.90;;;;;;4954421;28;20718;-74
2022/12/31 10:56:00;;;;;;;13.73;9.00;;;10.60;99.90;;;;;;4954467;28;20269;-73
2022/12/31 10:59:06;;;;;;;10.90;9.43;;;10.60;99.90;;;;;;4954188;28;20215;-75
2022/12/31 11:01:48;;;;;;;9.53;8.63;;;10.60;99.90;;;;;;4979232;28;20744;-75
2022/12/31 11:05:03;;;;;;;8.73;7.93;;;10.60;99.90;;;;;;5057128;28;20231;-75
2022/12/31 11:07:50;;;;;;;8.67;7.73;;;10.50;99.90;;;;;;5094577;28;20259;-76
2022/12/31 11:11:04;;;;;;;8.30;7.50;;;10.40;99.90;;;;;;5094719;28;20205;-77
2022/12/31 11:14:05;;;;;;;8.47;7.60;;;10.60;99.90;;;;;;5012301;28;20239;-75
2022/12/31 11:16:48;;;;;;;8.10;7.30;;;10.60;99.90;;;;;;5012241;28;20686;-77
2022/12/31 11:19:25;;;;;;;8.07;7.30;;;10.60;99.90;;;;;;5012084;28;20207;-76
2022/12/31 11:22:12;;;;;;;9.20;8.30;;;10.40;99.90;;;;;;5012432;28;20216;-76
2022/12/31 11:25:16;;;;;;;13.80;12.30;;;10.50;99.90;;;;;;5012147;28;20260;-77
2022/12/31 11:28:00;;;;;;;8.80;8.00;;;10.70;99.90;;;;;;5012269;28;20198;-76
2022/12/31 11:30:37;;;;;;;9.23;8.23;;;10.80;99.90;;;;;;4995342;28;20575;-76
2022/12/31 11:33:24;;;;;;;8.50;7.70;;;10.80;99.90;;;;;;5011946;28;20292;-75
2022/12/31 11:36:09;;;;;;;9.37;8.30;;;10.90;99.90;;;;;;5012335;28;20316;-75
2022/12/31 11:38:45;;;;;;;9.00;8.13;;;10.80;99.90;;;;;;5011883;28;20216;-75
2022/12/31 11:41:23;;;;;;;7.90;7.20;;;10.70;99.90;;;;;;5012392;28;20221;-75
2022/12/31 11:44:00;;;;;;;8.53;7.73;;;10.70;99.90;;;;;;5011542;28;20284;-77
2022/12/31 11:46:51;;;;;;;12.07;9.73;;;10.80;99.90;;;;;;5012250;28;20292;-78
2022/12/31 11:49:48;;;;;;;8.27;7.43;;;10.90;99.90;;;;;;5023149;28;20218;-81
2022/12/31 11:52:48;;;;;;;9.90;7.60;;;10.70;99.90;;;;;;5093945;28;20218;-78
2022/12/31 11:55:43;;;;;;;7.80;7.00;;;10.70;99.90;;;;;;5093848;28;20239;-82
2022/12/31 11:58:20;;;;;;;8.10;7.20;;;10.80;99.90;;;;;;5093487;28;20948;-87
2022/12/31 12:00:55;;;;;;;8.47;7.53;;;10.70;99.90;;;;;;5093216;28;20259;-77
2022/12/31 12:03:25;;;;;;;9.47;7.60;;;10.90;99.90;;;;;;5093469;28;20290;-76
2022/12/31 12:05:57;;;;;;;8.80;7.47;;;11.00;99.90;;;;;;5090767;28;20201;-77
2022/12/31 12:08:30;;;;;;;8.80;7.93;;;10.80;99.90;;;;;;5073080;28;20200;-78
2022/12/31 12:11:05;;;;;;;9.03;8.13;;;10.90;99.90;;;;;;5090297;28;20206;-78
2022/12/31 12:13:35;;;;;;;9.33;8.43;;;10.90;99.90;;;;;;5092098;28;20249;-79
2022/12/31 12:16:07;;;;;;;9.20;7.90;;;11.00;99.90;;;;;;5092867;28;20309;-76
2022/12/31 12:18:42;;;;;;;8.27;6.93;;;11.20;99.90;;;;;;5093943;28;20203;-74
2022/12/31 12:21:16;;;;;;;10.87;8.53;;;11.20;99.90;;;;;;5093583;28;20205;-77
2022/12/31 12:23:55;;;;;;;9.47;8.47;;;11.20;99.90;;;;;;5093348;28;20199;-77
2022/12/31 12:26:33;;;;;;;8.50;7.50;;;11.20;99.90;;;;;;5093233;28;20282;-81
2022/12/31 12:29:10;;;;;;;9.80;8.80;;;11.20;99.90;;;;;;5093035;28;20740;-79
2022/12/31 12:31:39;;;;;;;9.27;8.47;;;11.10;99.90;;;;;;5078405;28;20253;-77
2022/12/31 12:34:23;;;;;;;12.07;10.43;;;11.20;99.90;;;;;;5072660;28;20218;-80
2022/12/31 12:36:53;;;;;;;13.87;10.83;;;11.20;99.90;;;;;;5072602;28;20202;-75
2022/12/31 12:39:25;;;;;;;16.67;11.60;;;11.10;99.90;;;;;;5072272;28;20207;-76
2022/12/31 12:42:03;;;;;;;11.47;10.27;;;11.20;99.90;;;;;;5071781;28;20184;-75
2022/12/31 12:44:34;;;;;;;12.13;10.80;;;11.20;99.90;;;;;;5081304;28;20207;-75
2022/12/31 12:47:06;;;;;;;14.07;9.70;;;11.10;99.90;;;;;;5087612;28;20522;-76
2022/12/31 12:49:40;;;;;;;15.53;11.07;;;11.00;99.90;;;;;;5091726;28;20199;-75
2022/12/31 12:52:34;;;;;;;13.83;11.20;;;11.00;99.90;;;;;;5093081;28;20677;-75
2022/12/31 12:55:17;;;;;;;14.83;10.07;;;11.00;99.90;;;;;;5093086;28;21064;-75
2022/12/31 12:57:53;;;;;;;14.37;10.10;;;11.00;99.90;;;;;;5092489;28;20196;-74
2022/12/31 13:00:29;;;;;;;10.60;8.80;;;11.00;99.90;;;;;;5092919;28;20192;-74
2022/12/31 13:03:34;;;;;;;9.63;8.17;;;11.20;99.90;;;;;;5092564;28;20229;-74
2022/12/31 13:06:22;;;;;;;10.10;8.67;;;11.20;99.90;;;;;;5092141;28;20199;-76
2022/12/31 13:09:09;;;;;;;9.37;7.67;;;11.20;99.90;;;;;;5093025;28;20274;-75
2022/12/31 13:11:47;;;;;;;8.77;7.33;;;11.00;99.90;;;;;;5092480;28;20658;-76
2022/12/31 13:14:24;;;;;;;9.83;8.67;;;11.10;99.90;;;;;;5092684;28;20246;-77
2022/12/31 13:16:59;;;;;;;9.53;6.23;;;11.10;99.90;;;;;;5092691;28;20217;-75
2022/12/31 13:19:35;;;;;;;8.00;6.50;;;11.10;99.90;;;;;;5092443;28;20661;-74
2022/12/31 13:22:10;;;;;;;7.53;6.73;;;11.20;99.90;;;;;;5091184;28;20569;-77
2022/12/31 13:24:57;;;;;;;8.37;6.37;;;11.20;99.90;;;;;;5092683;28;20204;-76
2022/12/31 13:27:33;;;;;;;6.97;6.00;;;11.20;99.90;;;;;;5092472;28;20190;-76
2022/12/31 13:30:15;;;;;;;6.47;5.70;;;11.10;99.90;;;;;;5092397;28;20188;-75
2022/12/31 13:32:48;;;;;;;7.40;6.40;;;11.20;99.90;;;;;;5092265;28;20211;-75
2022/12/31 13:35:29;;;;;;;5.47;5.07;;;11.20;99.90;;;;;;5091649;28;20637;-75
2022/12/31 13:38:03;;;;;;;6.30;5.57;;;11.20;99.90;;;;;;5092278;28;20203;-75
2022/12/31 13:40:44;;;;;;;6.60;5.97;;;11.30;99.90;;;;;;5091714;28;20198;-74
2022/12/31 13:43:20;;;;;;;6.83;5.30;;;11.30;99.90;;;;;;5092256;28;20256;-76
2022/12/31 13:45:59;;;;;;;5.63;5.13;;;11.30;99.90;;;;;;5092434;28;20190;-75
2022/12/31 13:48:36;;;;;;;5.83;5.20;;;11.40;99.90;;;;;;5092201;28;20316;-75
2022/12/31 13:51:13;;;;;;;5.47;5.00;;;11.40;99.90;;;;;;5091975;28;20248;-75
2022/12/31 13:53:49;;;;;;;5.43;4.93;;;11.40;99.90;;;;;;5091973;28;20278;-75
2022/12/31 13:56:48;;;;;;;5.30;4.43;;;11.40;99.90;;;;;;5092046;28;20600;-75
2022/12/31 13:59:21;;;;;;;5.67;5.17;;;11.50;99.90;;;;;;5092049;28;20208;-75
2022/12/31 14:01:56;;;;;;;9.03;7.77;;;11.50;99.90;;;;;;5091876;28;20541;-74
2022/12/31 14:04:33;;;;;;;6.13;5.60;;;11.60;99.90;;;;;;5091943;28;20225;-76
2022/12/31 14:07:35;;;;;;;5.73;5.00;;;11.60;99.90;;;;;;5090364;28;20230;-76
2022/12/31 14:10:14;;;;;;;6.13;5.07;;;11.60;99.90;;;;;;5091492;28;20730;-77
2022/12/31 14:12:55;;;;;;;6.30;5.70;;;11.70;99.90;;;;;;5092074;28;20202;-75